createdAt,value
2022-10-03T00:00:13.238Z,101093.25
2022-10-03T00:03:41.040Z,101095.31
2022-10-03T00:07:17.601Z,101104.41
2022-10-03T00:10:17.491Z,101107.97
2022-10-03T00:13:13.268Z,101116.13
2022-10-03T00:16:03.646Z,101109.66
2022-10-03T00:18:46.007Z,101113.41
2022-10-03T00:21:58.128Z,101111.94
2022-10-03T00:24:56.887Z,101112.88
2022-10-03T00:27:46.837Z,101118.50
2022-10-03T00:30:22.965Z,101129.81
2022-10-03T00:33:04.274Z,101124.06
2022-10-03T00:36:00.463Z,101123.94
2022-10-03T00:39:04.685Z,101122.25
2022-10-03T00:41:59.533Z,101122.34
2022-10-03T00:44:50.785Z,101124.50
2022-10-03T00:47:29.543Z,101127.78
2022-10-03T00:50:38.562Z,101130.75
2022-10-03T00:53:52.412Z,101131.59
2022-10-03T00:57:16.555Z,101134.31
2022-10-03T01:00:07.187Z,101125.75
2022-10-03T01:02:39.765Z,101128.25
2022-10-03T01:05:31.636Z,101139.34
2022-10-03T01:08:31.051Z,101138.94
2022-10-03T01:11:42.203Z,101145.91
2022-10-03T01:15:10.335Z,101147.38
2022-10-03T01:18:01.901Z,101148.72
2022-10-03T01:20:47.961Z,101152.91
2022-10-03T01:24:18.444Z,101147.28
2022-10-03T01:27:01.832Z,101154.88
2022-10-03T01:30:13.922Z,101157.41
2022-10-03T01:33:10.597Z,101157.00
2022-10-03T01:36:08.541Z,101151.00
2022-10-03T01:38:49.935Z,101162.84
2022-10-03T01:41:59.021Z,101157.38
2022-10-03T01:45:03.361Z,101154.53
2022-10-03T01:48:01.084Z,101157.88
2022-10-03T01:51:11.669Z,101160.75
2022-10-03T01:54:31.647Z,101154.19
2022-10-03T01:57:45.430Z,101150.81
2022-10-03T02:00:25.287Z,101155.63
2022-10-03T02:03:35.019Z,101165.59
2022-10-03T02:06:36.235Z,101155.31
2022-10-03T02:09:59.582Z,101162.97
2022-10-03T02:13:08.932Z,101166.91
2022-10-03T02:16:20.831Z,101173.31
2022-10-03T02:19:36.565Z,101165.47
2022-10-03T02:22:13.865Z,101166.28
2022-10-03T02:24:57.224Z,101166.72
2022-10-03T02:28:30.325Z,101174.00
2022-10-03T02:31:49.418Z,101172.50
2022-10-03T02:35:01.609Z,101181.25
2022-10-03T02:38:18.960Z,101177.78
2022-10-03T02:41:19.181Z,101182.56
2022-10-03T02:44:58.570Z,101184.69
2022-10-03T02:48:30.242Z,101178.38
2022-10-03T02:51:37.047Z,101185.50
2022-10-03T02:55:37.460Z,101192.66
2022-10-03T02:58:56.835Z,101192.22
2022-10-03T03:02:22.583Z,101207.69
2022-10-03T03:05:49.436Z,101204.44
2022-10-03T03:08:58.102Z,101205.38
2022-10-03T03:11:59.215Z,101202.16
2022-10-03T03:15:30.200Z,101212.69
2022-10-03T03:18:29.252Z,101213.13
2022-10-03T03:21:31.115Z,101221.09
2022-10-03T03:25:08.972Z,101221.81
2022-10-03T03:28:19.575Z,101215.84
2022-10-03T03:31:18.759Z,101216.94
2022-10-03T03:34:31.699Z,101217.09
2022-10-03T03:37:19.817Z,101219.44
2022-10-03T03:40:29.646Z,101216.44
2022-10-03T03:43:22.803Z,101213.75
2022-10-03T03:46:29.799Z,101219.09
2022-10-03T03:49:31.771Z,101218.88
2022-10-03T03:52:32.444Z,101229.91
2022-10-03T03:55:45.197Z,101225.63
2022-10-03T03:58:51.300Z,101232.00
2022-10-03T04:01:42.364Z,101232.81
2022-10-03T04:05:12.501Z,101234.91
2022-10-03T04:08:12.352Z,101237.00
2022-10-03T04:11:13.940Z,101238.72
2022-10-03T04:14:19.965Z,101245.06
2022-10-03T04:17:49.471Z,101244.75
2022-10-03T04:21:08.626Z,101250.63
2022-10-03T04:24:45.994Z,101246.41
2022-10-03T04:27:38.751Z,101249.03
2022-10-03T04:30:15.922Z,101246.22
2022-10-03T04:33:49.520Z,101252.50
2022-10-03T04:37:25.589Z,101262.69
2022-10-03T04:40:38.701Z,101254.22
2022-10-03T04:43:43.625Z,101250.63
2022-10-03T04:46:27.961Z,101266.13
2022-10-03T04:49:28.898Z,101262.16
2022-10-03T04:52:19.404Z,101260.72
2022-10-03T04:55:20.759Z,101265.41
2022-10-03T04:58:17.406Z,101265.41
2022-10-03T05:01:27.651Z,101265.59
2022-10-03T05:04:22.571Z,101266.75
2022-10-03T05:07:32.476Z,101264.78
2022-10-03T05:10:23.257Z,101271.91
2022-10-03T05:13:04.952Z,101265.31
2022-10-03T05:16:02.471Z,101272.22
2022-10-03T05:19:33.373Z,101271.19
2022-10-03T05:22:43.977Z,101272.41
2022-10-03T05:25:33.302Z,101271.38
2022-10-03T05:28:38.833Z,101274.75
2022-10-03T05:31:34.622Z,101282.41
2022-10-03T05:34:51.467Z,101285.00
2022-10-03T05:38:02.402Z,101282.28
2022-10-03T05:40:34.330Z,101298.22
2022-10-03T05:44:00.761Z,101293.06
2022-10-03T05:47:31.794Z,101297.03
2022-10-03T05:50:42.181Z,101293.06
2022-10-03T05:53:50.817Z,101298.28
2022-10-03T05:56:27.246Z,101304.03
2022-10-03T05:59:43.443Z,101304.03
2022-10-03T06:02:57.116Z,101310.00
2022-10-03T06:06:24.878Z,101315.16
2022-10-03T06:09:24.813Z,101321.53
2022-10-03T06:12:18.278Z,101332.97
2022-10-03T06:15:44.866Z,101338.81
2022-10-03T06:18:55.012Z,101348.47
2022-10-03T06:21:59.499Z,101341.97
2022-10-03T06:25:28.421Z,101338.22
2022-10-03T06:29:01.141Z,101349.50
2022-10-03T06:32:02.337Z,101346.06
2022-10-03T06:35:29.350Z,101354.94
2022-10-03T06:38:52.041Z,101356.16
2022-10-03T06:41:59.268Z,101364.88
2022-10-03T06:45:05.041Z,101361.84
2022-10-03T06:47:51.326Z,101368.88
2022-10-03T06:50:21.330Z,101368.94
2022-10-03T06:53:28.900Z,101361.03
2022-10-03T06:56:40.481Z,101365.88
2022-10-03T06:59:56.308Z,101366.94
2022-10-03T07:02:41.103Z,101380.22
2022-10-03T07:05:54.588Z,101377.03
2022-10-03T07:09:31.886Z,101391.34
2022-10-03T07:12:57.895Z,101385.97
2022-10-03T07:20:02.232Z,101392.63
2022-10-03T07:22:53.694Z,101393.34
2022-10-03T07:25:49.727Z,101394.53
2022-10-03T07:29:20.441Z,101395.34
2022-10-03T07:32:06.198Z,101405.47
2022-10-03T07:35:53.882Z,101401.75
2022-10-03T07:39:10.078Z,101409.72
2022-10-03T07:42:47.355Z,101409.00
2022-10-03T07:45:47.623Z,101412.00
2022-10-03T07:49:03.769Z,101415.97
2022-10-03T07:52:12.876Z,101419.47
2022-10-03T07:55:50.312Z,101417.75
2022-10-03T07:58:54.644Z,101410.44
2022-10-03T08:02:15.537Z,101432.28
2022-10-03T08:05:17.061Z,101443.06
2022-10-03T08:08:35.334Z,101436.91
2022-10-03T08:11:46.763Z,101441.00
2022-10-03T08:14:43.985Z,101435.94
2022-10-03T08:18:21.141Z,101445.34
2022-10-03T08:21:02.014Z,101450.88
2022-10-03T08:23:43.998Z,101456.34
2022-10-03T08:26:47.886Z,101454.41
2022-10-03T08:30:04.028Z,101456.34
2022-10-03T08:33:29.781Z,101457.63
2022-10-03T08:36:43.146Z,101462.38
2022-10-03T08:39:34.090Z,101470.59
2022-10-03T08:42:37.066Z,101468.47
2022-10-03T08:46:19.445Z,101463.69
2022-10-03T08:49:40.442Z,101462.31
2022-10-03T08:52:37.777Z,101460.97
2022-10-03T09:08:27.005Z,101472.75
2022-10-03T09:11:32.037Z,101475.22
2022-10-03T09:14:52.986Z,101472.41
2022-10-03T09:18:41.513Z,101477.41
2022-10-03T09:21:49.406Z,101475.47
2022-10-03T09:24:56.484Z,101474.41
2022-10-03T09:27:50.177Z,101474.59
2022-10-03T09:30:44.653Z,101481.41
2022-10-03T09:33:56.055Z,101481.09
2022-10-03T09:36:59.328Z,101477.56
2022-10-03T09:40:27.637Z,101475.47
2022-10-03T09:43:27.005Z,101477.78
2022-10-03T09:46:28.517Z,101486.97
2022-10-03T09:50:19.168Z,101491.00
2022-10-03T09:53:24.609Z,101489.53
2022-10-03T09:56:31.213Z,101494.03
2022-10-03T09:59:57.450Z,101486.84
2022-10-03T10:03:09.492Z,101480.78
2022-10-03T10:06:03.251Z,101490.47
2022-10-03T10:09:18.015Z,101487.00
2022-10-03T10:13:04.409Z,101490.47
2022-10-03T10:16:09.738Z,101486.09
2022-10-03T10:19:41.974Z,101485.88
2022-10-03T10:22:43.450Z,101483.09
2022-10-03T10:26:10.143Z,101480.94
2022-10-03T10:28:55.533Z,101484.41
2022-10-03T10:32:02.507Z,101494.94
2022-10-03T10:35:51.824Z,101479.41
2022-10-03T10:38:42.220Z,101490.13
2022-10-03T10:42:14.733Z,101477.44
2022-10-03T10:45:39.014Z,101486.44
2022-10-03T10:49:18.713Z,101479.75
2022-10-03T10:52:45.834Z,101468.91
2022-10-03T10:55:47.524Z,101474.06
2022-10-03T10:58:54.175Z,101471.97
2022-10-03T11:02:25.795Z,101477.69
2022-10-03T11:05:46.726Z,101478.50
2022-10-03T11:08:50.710Z,101467.69
2022-10-03T11:12:41.956Z,101470.41
2022-10-03T11:16:24.086Z,101468.38
2022-10-03T11:19:50.947Z,101469.47
2022-10-03T11:23:35.032Z,101475.31
2022-10-03T11:26:45.757Z,101474.91
2022-10-03T11:29:53.573Z,101470.94
2022-10-03T11:33:16.022Z,101468.22
2022-10-03T11:37:01.755Z,101468.81
2022-10-03T11:40:02.419Z,101469.34
2022-10-03T11:43:34.344Z,101466.28
2022-10-03T11:46:53.437Z,101464.22
2022-10-03T11:50:14.199Z,101464.34
2022-10-03T11:53:20.386Z,101467.13
2022-10-03T11:56:30.139Z,101469.00
2022-10-03T11:59:36.153Z,101479.97
2022-10-03T12:02:40.128Z,101475.50
2022-10-03T12:05:40.883Z,101461.84
2022-10-03T12:08:49.563Z,101469.06
2022-10-03T12:11:51.123Z,101466.03
2022-10-03T12:14:44.750Z,101456.56
2022-10-03T12:17:42.517Z,101459.88
2022-10-03T12:20:26.751Z,101452.38
2022-10-03T12:23:44.663Z,101457.88
2022-10-03T12:26:28.061Z,101456.81
2022-10-03T12:28:57.686Z,101444.31
2022-10-03T12:31:37.379Z,101459.69
2022-10-03T12:34:45.205Z,101459.53
2022-10-03T12:37:27.553Z,101466.28
2022-10-03T12:40:24.329Z,101473.63
2022-10-03T12:43:34.227Z,101463.69
2022-10-03T12:46:15.168Z,101468.75
2022-10-03T12:49:03.671Z,101452.13
2022-10-03T12:51:57.139Z,101462.81
2022-10-03T12:55:01.558Z,101473.94
2022-10-03T12:57:59.250Z,101468.59
2022-10-03T13:01:03.592Z,101471.31
2022-10-03T13:04:38.393Z,101465.88
2022-10-03T13:10:50.997Z,101464.91
2022-10-03T13:14:01.929Z,101458.34
2022-10-03T13:17:02.169Z,101458.91
2022-10-03T13:20:13.668Z,101459.31
2022-10-03T13:22:59.315Z,101452.13
2022-10-03T13:25:52.142Z,101456.25
2022-10-03T13:28:40.205Z,101458.63
2022-10-03T13:31:27.158Z,101456.56
2022-10-03T13:34:07.760Z,101457.56
2022-10-03T13:36:53.399Z,101465.47
2022-10-03T13:39:52.175Z,101457.06
2022-10-03T13:42:47.140Z,101455.03
2022-10-03T13:45:25.498Z,101453.59
2022-10-03T13:48:07.625Z,101454.81
2022-10-03T13:51:02.539Z,101441.72
2022-10-03T13:53:59.286Z,101451.66
2022-10-03T13:57:01.956Z,101455.00
2022-10-03T14:00:09.693Z,101455.75
2022-10-03T14:02:41.880Z,101454.63
2022-10-03T14:05:42.017Z,101456.28
2022-10-03T14:09:08.258Z,101458.22
2022-10-03T14:11:47.020Z,101450.44
2022-10-03T14:15:05.961Z,101441.97
2022-10-03T14:18:02.461Z,101447.09
2022-10-03T14:20:35.603Z,101452.13
2022-10-03T14:23:48.038Z,101449.88
2022-10-03T14:26:47.170Z,101450.44
2022-10-03T14:30:16.964Z,101459.72
2022-10-03T14:33:29.090Z,101458.47
2022-10-03T14:36:47.192Z,101455.41
2022-10-03T14:40:12.475Z,101458.81
2022-10-03T14:43:46.175Z,101452.78
2022-10-03T14:46:15.718Z,101450.84
2022-10-03T14:48:50.069Z,101454.75
2022-10-03T14:51:26.451Z,101450.84
2022-10-03T14:54:16.772Z,101454.81
2022-10-03T14:56:48.049Z,101468.28
2022-10-03T14:59:34.462Z,101457.66
2022-10-03T15:02:45.808Z,101455.34
2022-10-03T15:05:34.997Z,101453.50
2022-10-03T15:08:16.045Z,101456.28
2022-10-03T15:10:46.069Z,101452.72
2022-10-03T15:13:19.091Z,101447.09
2022-10-03T15:15:48.395Z,101445.78
2022-10-03T15:18:21.519Z,101449.16
2022-10-03T15:20:52.423Z,101444.50
2022-10-03T15:23:33.606Z,101453.06
2022-10-03T15:26:02.327Z,101449.31
2022-10-03T15:28:45.152Z,101458.06
2022-10-03T15:31:39.480Z,101457.44
2022-10-03T15:34:38.605Z,101460.69
2022-10-03T15:37:20.516Z,101453.53
2022-10-03T15:39:48.819Z,101458.19
2022-10-03T15:42:29.877Z,101460.91
2022-10-03T15:45:05.958Z,101464.59
2022-10-03T15:47:44.128Z,101452.88
2022-10-03T15:50:27.854Z,101471.22
2022-10-03T15:53:36.173Z,101463.22
2022-10-03T15:56:18.959Z,101464.50
2022-10-03T15:58:56.285Z,101466.84
2022-10-03T16:01:34.222Z,101470.03
2022-10-03T16:04:30.725Z,101468.59
2022-10-03T16:07:23.578Z,101467.22
2022-10-03T16:10:22.622Z,101463.50
2022-10-03T16:13:21.145Z,101462.03
2022-10-03T16:16:26.360Z,101465.31
2022-10-03T16:19:31.191Z,101463.03
2022-10-03T16:22:23.722Z,101465.06
2022-10-03T16:25:24.732Z,101463.22
2022-10-03T16:28:19.313Z,101473.00
2022-10-03T16:31:07.446Z,101471.38
2022-10-03T16:33:40.215Z,101466.63
2022-10-03T16:36:18.047Z,101466.72
2022-10-03T16:39:00.871Z,101464.47
2022-10-03T16:41:40.604Z,101461.78
2022-10-03T16:44:28.217Z,101470.97
2022-10-03T16:47:01.179Z,101463.81
2022-10-03T16:50:13.920Z,101468.09
2022-10-03T16:52:43.921Z,101468.56
2022-10-03T16:55:37.171Z,101462.84
2022-10-03T16:58:44.203Z,101464.25
2022-10-03T17:01:27.728Z,101467.81
2022-10-03T17:04:23.936Z,101459.25
2022-10-03T17:07:06.377Z,101464.97
2022-10-03T17:09:52.711Z,101463.28
2022-10-03T17:12:45.231Z,101469.28
2022-10-03T17:15:23.068Z,101457.19
2022-10-03T17:18:10.590Z,101460.28
2022-10-03T17:21:28.722Z,101463.41
2022-10-03T17:24:11.354Z,101463.31
2022-10-03T17:26:46.530Z,101466.88
2022-10-03T17:29:41.991Z,101465.84
2022-10-03T17:32:25.446Z,101465.38
2022-10-03T17:35:18.149Z,101461.31
2022-10-03T17:38:44.970Z,101464.13
2022-10-03T17:41:49.969Z,101463.34
2022-10-03T17:45:19.635Z,101467.38
2022-10-03T17:47:56.300Z,101474.72
2022-10-03T17:50:42.205Z,101469.00
2022-10-03T17:53:35.893Z,101465.91
2022-10-03T17:56:15.038Z,101457.53
2022-10-03T17:58:47.743Z,101465.94
2022-10-03T18:01:36.116Z,101466.16
2022-10-03T18:04:07.168Z,101465.75
2022-10-03T18:06:47.865Z,101465.94
2022-10-03T18:09:14.564Z,101471.63
2022-10-03T18:11:45.052Z,101468.25
2022-10-03T18:14:49.192Z,101471.16
2022-10-03T18:18:15.573Z,101465.19
2022-10-03T18:21:06.135Z,101464.78
2022-10-03T18:24:17.618Z,101464.31
2022-10-03T18:27:23.145Z,101463.00
2022-10-03T18:30:05.794Z,101456.44
2022-10-03T18:32:39.540Z,101455.31
2022-10-03T18:35:25.015Z,101453.66
2022-10-03T18:38:26.895Z,101451.03
2022-10-03T18:41:02.981Z,101453.66
2022-10-03T18:43:45.379Z,101458.97
2022-10-03T18:46:30.181Z,101457.34
2022-10-03T18:49:39.646Z,101464.00
2022-10-03T18:52:27.915Z,101468.59
2022-10-03T18:55:15.443Z,101469.66
2022-10-03T18:58:20.454Z,101466.69
2022-10-03T19:01:19.221Z,101473.75
2022-10-03T19:03:58.978Z,101481.00
2022-10-03T19:06:41.017Z,101479.22
2022-10-03T19:09:46.214Z,101480.91
2022-10-03T19:12:23.379Z,101468.25
2022-10-03T19:15:19.523Z,101473.53
2022-10-03T19:18:28.321Z,101467.06
2022-10-03T19:21:01.511Z,101476.94
2022-10-03T19:23:42.687Z,101482.19
2022-10-03T19:26:23.269Z,101472.88
2022-10-03T19:28:56.921Z,101477.31
2022-10-03T19:31:40.809Z,101473.97
2022-10-03T19:34:37.967Z,101472.53
2022-10-03T19:37:30.620Z,101474.78
2022-10-03T19:39:59.093Z,101474.06
2022-10-03T19:42:52.910Z,101470.13
2022-10-03T19:45:20.237Z,101472.13
2022-10-03T19:48:06.551Z,101471.81
2022-10-03T19:50:37.461Z,101478.25
2022-10-03T19:53:18.358Z,101478.16
2022-10-03T19:55:47.583Z,101471.25
2022-10-03T19:58:24.507Z,101477.31
2022-10-03T20:00:56.369Z,101479.09
2022-10-03T20:03:40.224Z,101480.69
2022-10-03T20:06:36.270Z,101473.66
2022-10-03T20:09:18.100Z,101471.75
2022-10-03T20:11:58.111Z,101457.75
2022-10-03T20:14:35.472Z,101463.00
2022-10-03T20:17:24.332Z,101467.41
2022-10-03T20:20:09.642Z,101472.53
2022-10-03T20:22:37.426Z,101456.59
2022-10-03T20:25:20.435Z,101460.41
2022-10-03T20:27:54.330Z,101452.34
2022-10-03T20:30:46.558Z,101462.38
2022-10-03T20:33:28.630Z,101457.91
2022-10-03T20:36:04.133Z,101460.16
2022-10-03T20:39:13.271Z,101451.88
2022-10-03T20:41:42.998Z,101453.13
2022-10-03T20:45:02.503Z,101458.59
2022-10-03T20:48:01.959Z,101462.53
2022-10-03T20:50:50.109Z,101461.00
2022-10-03T20:53:27.111Z,101465.66
2022-10-03T20:56:09.313Z,101457.16
2022-10-03T20:58:51.610Z,101458.75
2022-10-03T21:01:26.552Z,101462.31
2022-10-03T21:04:13.970Z,101464.22
2022-10-03T21:07:06.149Z,101463.56
2022-10-03T21:10:01.284Z,101464.72
2022-10-03T21:12:50.163Z,101467.56
2022-10-03T21:15:59.062Z,101465.06
2022-10-03T21:18:40.408Z,101469.75
2022-10-03T21:21:15.678Z,101472.50
2022-10-03T21:24:34.726Z,101464.97
2022-10-03T21:27:15.555Z,101472.53
2022-10-03T21:30:04.215Z,101459.78
2022-10-03T21:33:00.334Z,101467.72
2022-10-03T21:35:39.300Z,101454.53
2022-10-03T21:38:31.790Z,101464.84
2022-10-03T21:41:36.844Z,101468.94
2022-10-03T21:44:52.328Z,101464.88
2022-10-03T21:48:02.815Z,101460.78
2022-10-03T21:50:41.248Z,101465.16
2022-10-03T21:53:50.110Z,101459.13
2022-10-03T21:57:14.070Z,101449.09
2022-10-03T22:00:25.963Z,101452.44
2022-10-03T22:03:18.689Z,101449.81
2022-10-03T22:06:15.890Z,101448.06
2022-10-03T22:08:46.432Z,101444.22
2022-10-03T22:11:53.251Z,101444.69
2022-10-03T22:14:31.343Z,101448.38
2022-10-03T22:17:42.463Z,101447.53
2022-10-03T22:20:23.846Z,101450.44
2022-10-03T22:23:30.660Z,101443.97
2022-10-03T22:26:32.993Z,101439.06
2022-10-03T22:29:22.986Z,101438.03
2022-10-03T22:32:07.994Z,101436.06
2022-10-03T22:34:56.702Z,101441.44
2022-10-03T22:37:23.941Z,101446.38
2022-10-03T22:39:51.248Z,101450.03
2022-10-03T22:42:20.110Z,101442.19
2022-10-03T22:44:51.774Z,101438.88
2022-10-03T22:47:32.180Z,101445.63
2022-10-03T22:50:12.782Z,101441.59
2022-10-03T22:52:44.403Z,101437.88
2022-10-03T22:55:16.165Z,101442.91
2022-10-03T22:57:45.457Z,101438.47
2022-10-03T23:00:20.156Z,101441.34
2022-10-03T23:03:05.226Z,101435.97
2022-10-03T23:06:00.271Z,101441.44
2022-10-03T23:09:22.144Z,101436.47
2022-10-03T23:11:52.689Z,101442.06
2022-10-03T23:14:38.415Z,101435.97
2022-10-03T23:18:25.790Z,101435.41
2022-10-03T23:21:04.748Z,101438.88
2022-10-03T23:24:10.119Z,101439.91
2022-10-03T23:27:42.815Z,101439.44
2022-10-03T23:30:12.553Z,101449.31
2022-10-03T23:32:48.159Z,101447.22
2022-10-03T23:35:38.623Z,101446.47
2022-10-03T23:38:31.325Z,101445.78
2022-10-03T23:41:04.049Z,101441.59
2022-10-03T23:43:39.704Z,101445.50
2022-10-03T23:46:30.709Z,101443.59
2022-10-03T23:49:01.872Z,101445.19
2022-10-03T23:51:36.333Z,101445.72
2022-10-03T23:54:12.102Z,101449.94
2022-10-03T23:56:48.520Z,101458.16
2022-10-03T23:59:15.437Z,101454.13
